Time;durP1;ratioP1;P1;durP2;ratioP2;P2;SDS_P1;SDS_P2;PMS_P1;PMS_P2;Temp;Humidity;BMP_temperature;BMP_pressure;BME280_temperature;BME280_humidity;BME280_pressure;Samples;Min_cycle;Max_cycle;Signal;HPM_P1;HPM_P2
2022/07/22 00:02:01;;;;;;;;;;;17.10;99.70;;;;;;5074241;28;19931;-58
2022/07/22 00:04:28;;;;;;;;;;;17.10;99.80;;;;;;5087948;28;20276;-57
2022/07/22 00:06:56;;;;;;;;;;;17.00;99.80;;;;;;5089334;28;20155;-58
2022/07/22 00:09:23;;;;;;;;;;;17.00;99.80;;;;;;5100820;28;19928;-57
2022/07/22 00:11:51;;;;;;;;;;;17.00;99.50;;;;;;5072335;28;19931;-58
2022/07/22 00:14:18;;;;;;;;;;;16.90;99.60;;;;;;5076123;28;19925;-57
2022/07/22 00:16:46;;;;;;;;;;;16.90;99.50;;;;;;5084298;28;20403;-55
2022/07/22 00:19:13;;;;;;;;;;;16.90;99.40;;;;;;5095525;28;19966;-55
2022/07/22 00:21:41;;;;;;;;;;;16.90;99.30;;;;;;5084957;28;19924;-55
2022/07/22 00:24:08;;;;;;;;;;;16.80;98.90;;;;;;5087291;28;19931;-56
2022/07/22 00:26:36;;;;;;;;;;;16.90;98.80;;;;;;5088729;28;19924;-56
2022/07/22 00:29:03;;;;;;;;;;;16.90;99.00;;;;;;5085634;28;19928;-55
2022/07/22 00:31:31;;;;;;;;;;;16.80;98.80;;;;;;5075450;28;19928;-57
2022/07/22 00:34:00;;;;;;;;;;;16.80;98.80;;;;;;5087519;28;19924;-57
2022/07/22 00:36:31;;;;;;;;;;;16.80;98.80;;;;;;5088806;28;19928;-57
2022/07/22 00:38:58;;;;;;;;;;;16.80;98.80;;;;;;5079321;28;19931;-54
2022/07/22 00:41:27;;;;;;;;;;;16.80;98.60;;;;;;5087212;28;19924;-56
2022/07/22 00:43:59;;;;;;;;;;;16.80;98.70;;;;;;5081650;28;19924;-56
2022/07/22 00:46:27;;;;;;;;;;;16.80;98.70;;;;;;5070548;28;19931;-55
2022/07/22 00:48:55;;;;;;;;;;;16.70;98.70;;;;;;5088511;28;19994;-55
2022/07/22 00:51:23;;;;;;;;;;;16.70;98.70;;;;;;5089853;28;19928;-56
2022/07/22 00:53:52;;;;;;;;;;;16.70;98.70;;;;;;5088016;28;20262;-55
2022/07/22 00:56:20;;;;;;;;;;;16.70;98.70;;;;;;5088014;28;19931;-56
2022/07/22 00:58:49;;;;;;;;;;;16.70;98.70;;;;;;5086423;28;19935;-57
2022/07/22 01:01:16;;;;;;;;;;;16.70;98.80;;;;;;5083406;28;19924;-57
2022/07/22 01:03:44;;;;;;;;;;;16.70;98.90;;;;;;5086980;28;20259;-57
2022/07/22 01:06:17;;;;;;;;;;;16.60;99.00;;;;;;5064794;28;20309;-57
2022/07/22 01:08:44;;;;;;;;;;;16.70;99.10;;;;;;5087823;28;19932;-57
2022/07/22 01:11:13;;;;;;;;;;;16.60;99.10;;;;;;5084360;28;19932;-57
2022/07/22 01:13:41;;;;;;;;;;;16.60;99.10;;;;;;5090309;28;19927;-56
2022/07/22 01:16:10;;;;;;;;;;;16.60;99.10;;;;;;5070264;28;19947;-55
2022/07/22 01:18:38;;;;;;;;;;;16.60;99.20;;;;;;5088630;28;20002;-56
2022/07/22 01:21:06;;;;;;;;;;;16.60;99.20;;;;;;5101040;28;19931;-56
2022/07/22 01:23:34;;;;;;;;;;;16.60;99.20;;;;;;5099964;28;19935;-57
2022/07/22 01:26:02;;;;;;;;;;;16.60;99.20;;;;;;5085054;28;19939;-57
2022/07/22 01:28:30;;;;;;;;;;;16.60;99.30;;;;;;5085695;28;19924;-58
2022/07/22 01:30:57;;;;;;;;;;;16.60;99.30;;;;;;5077806;28;20387;-57
2022/07/22 01:33:25;;;;;;;;;;;16.60;99.30;;;;;;5074159;28;19931;-56
2022/07/22 01:35:53;;;;;;;;;;;16.70;99.30;;;;;;5071212;28;19939;-56
2022/07/22 01:38:20;;;;;;;;;;;16.70;99.30;;;;;;5083241;28;19936;-55
2022/07/22 01:40:48;;;;;;;;;;;16.70;99.40;;;;;;5093567;28;19924;-57
2022/07/22 01:43:17;;;;;;;;;;;16.70;99.50;;;;;;5085865;28;19924;-56
2022/07/22 01:45:48;;;;;;;;;;;16.70;99.60;;;;;;5085564;28;19931;-59
2022/07/22 01:48:16;;;;;;;;;;;16.70;99.80;;;;;;5089576;28;19924;-56
2022/07/22 01:50:43;;;;;;;;;;;16.60;99.80;;;;;;5084314;28;19928;-57
2022/07/22 01:53:11;;;;;;;;;;;16.60;99.80;;;;;;5094065;28;19932;-57
2022/07/22 01:55:42;;;;;;;;;;;16.60;99.90;;;;;;5077552;28;19939;-57
2022/07/22 01:58:10;;;;;;;;;;;16.60;99.90;;;;;;5076104;28;20307;-56
2022/07/22 02:00:38;;;;;;;;;;;16.60;99.80;;;;;;5089292;28;19924;-56
2022/07/22 02:03:06;;;;;;;;;;;16.60;99.90;;;;;;5092004;28;19931;-57
2022/07/22 02:05:33;;;;;;;;;;;16.60;99.90;;;;;;5094503;28;20386;-56
2022/07/22 02:08:08;;;;;;;;;;;16.60;99.90;;;;;;5092918;28;19939;-56
2022/07/22 02:10:59;;;;;;;;;;;16.50;99.90;;;;;;5093808;28;19931;-56
2022/07/22 02:13:26;;;;;;;;;;;16.40;99.90;;;;;;5090713;28;20291;-56
2022/07/22 02:15:54;;;;;;;;;;;16.30;99.90;;;;;;5078792;28;20446;-56
2022/07/22 02:18:21;;;;;;;;;;;16.20;99.90;;;;;;5083419;28;19931;-56
2022/07/22 02:20:50;;;;;;;;;;;16.10;99.90;;;;;;5094253;28;19924;-56
2022/07/22 02:23:18;;;;;;;;;;;16.10;99.90;;;;;;5072204;28;19924;-56
2022/07/22 02:25:46;;;;;;;;;;;16.00;99.90;;;;;;5073691;28;19932;-56
2022/07/22 02:28:13;;;;;;;;;;;16.00;99.90;;;;;;5075476;28;19929;-57
2022/07/22 02:30:41;;;;;;;;;;;15.90;99.90;;;;;;5092159;28;19924;-56
2022/07/22 02:33:09;;;;;;;;;;;15.90;99.90;;;;;;5092493;28;19932;-57
2022/07/22 02:35:36;;;;;;;;;;;15.90;99.90;;;;;;5092370;28;19924;-57
2022/07/22 02:38:04;;;;;;;;;;;15.90;99.90;;;;;;5091603;28;19924;-57
2022/07/22 02:40:32;;;;;;;;;;;15.90;99.90;;;;;;5089914;28;19924;-56
2022/07/22 02:43:00;;;;;;;;;;;15.90;99.90;;;;;;5072951;28;19931;-57
2022/07/22 02:45:28;;;;;;;;;;;15.80;99.90;;;;;;5076553;28;19924;-56
2022/07/22 02:47:56;;;;;;;;;;;15.80;99.90;;;;;;5089559;28;20291;-55
2022/07/22 02:50:25;;;;;;;;;;;15.80;99.90;;;;;;5092773;28;19935;-55
2022/07/22 02:52:53;;;;;;;;;;;15.80;99.90;;;;;;5089937;28;19924;-55
2022/07/22 02:55:25;;;;;;;;;;;15.80;99.90;;;;;;5090441;28;20307;-55
2022/07/22 02:57:54;;;;;;;;;;;15.80;99.90;;;;;;5080097;28;19928;-57
2022/07/22 03:00:22;;;;;;;;;;;15.80;99.90;;;;;;5075103;28;19924;-57
2022/07/22 03:02:51;;;;;;;;;;;15.80;99.90;;;;;;5080840;28;19931;-57
2022/07/22 03:05:18;;;;;;;;;;;15.80;99.90;;;;;;5090489;28;19924;-57
2022/07/22 03:07:51;;;;;;;;;;;15.80;99.90;;;;;;5091624;28;19928;-57
2022/07/22 03:10:20;;;;;;;;;;;15.80;99.90;;;;;;5092388;28;20078;-57
2022/07/22 03:12:49;;;;;;;;;;;15.80;99.90;;;;;;5075322;28;19935;-56
2022/07/22 03:15:17;;;;;;;;;;;15.70;99.90;;;;;;5102907;28;19999;-56
2022/07/22 03:17:44;;;;;;;;;;;15.80;99.90;;;;;;5073628;28;19924;-56
2022/07/22 03:20:12;;;;;;;;;;;15.80;99.90;;;;;;5088905;28;19924;-57
2022/07/22 03:22:39;;;;;;;;;;;16.20;99.90;;;;;;5071400;28;20384;-58
2022/07/22 03:25:07;;;;;;;;;;;15.80;99.90;;;;;;5084106;28;20376;-56
2022/07/22 03:27:35;;;;;;;;;;;15.80;99.90;;;;;;5089668;28;19948;-56
2022/07/22 03:30:03;;;;;;;;;;;15.80;99.90;;;;;;5085640;28;19924;-58
2022/07/22 03:32:32;;;;;;;;;;;15.80;99.90;;;;;;5087279;28;19924;-57
2022/07/22 03:34:59;;;;;;;;;;;15.80;99.90;;;;;;5091985;28;19938;-57
2022/07/22 03:37:32;;;;;;;;;;;15.70;99.90;;;;;;5091267;28;20269;-58
2022/07/22 03:40:00;;;;;;;;;;;15.70;99.90;;;;;;5091143;28;20550;-57
2022/07/22 03:42:28;;;;;;;;;;;15.80;99.90;;;;;;5090316;28;19924;-57
2022/07/22 03:44:56;;;;;;;;;;;15.70;99.90;;;;;;5088147;28;19931;-57
2022/07/22 03:47:24;;;;;;;;;;;15.70;99.90;;;;;;5074910;28;20407;-57
2022/07/22 03:49:52;;;;;;;;;;;15.70;99.90;;;;;;5091426;28;19932;-56
2022/07/22 03:52:25;;;;;;;;;;;15.70;99.90;;;;;;5090842;28;19935;-57
2022/07/22 03:54:53;;;;;;;;;;;15.70;99.90;;;;;;5091517;28;19931;-57
2022/07/22 03:57:20;;;;;;;;;;;15.70;99.90;;;;;;5089738;28;19924;-57
2022/07/22 03:59:56;;;;;;;;;;;15.70;99.90;;;;;;5084181;28;20292;-57
2022/07/22 04:02:24;;;;;;;;;;;15.70;99.90;;;;;;5083417;28;20406;-57
2022/07/22 04:04:51;;;;;;;;;;;15.70;99.90;;;;;;5081627;28;19932;-56
2022/07/22 04:07:19;;;;;;;;;;;15.70;99.90;;;;;;5081909;28;19924;-56
2022/07/22 04:09:46;;;;;;;;;;;15.70;99.90;;;;;;5073733;28;20529;-57
2022/07/22 04:12:14;;;;;;;;;;;15.70;99.90;;;;;;5090339;28;19924;-57
2022/07/22 04:15:02;;;;;;;;;;;15.70;99.90;;;;;;5077475;28;19924;-57
2022/07/22 04:17:30;;;;;;;;;;;15.70;99.90;;;;;;5086024;28;19931;-56
2022/07/22 04:19:59;;;;;;;;;;;15.60;99.90;;;;;;5091092;28;19931;-58
2022/07/22 04:22:32;;;;;;;;;;;15.60;99.90;;;;;;5090828;28;19924;-57
2022/07/22 04:25:00;;;;;;;;;;;15.60;99.90;;;;;;5088339;28;19924;-57
2022/07/22 04:27:28;;;;;;;;;;;15.50;99.90;;;;;;5089205;28;19924;-57
2022/07/22 04:29:56;;;;;;;;;;;15.50;99.90;;;;;;5090343;28;19935;-57
2022/07/22 04:32:24;;;;;;;;;;;15.50;99.90;;;;;;5090750;28;19924;-57
2022/07/22 04:34:51;;;;;;;;;;;15.40;99.90;;;;;;5090174;28;19931;-57
2022/07/22 04:37:19;;;;;;;;;;;15.40;99.90;;;;;;5090806;28;20395;-57
2022/07/22 04:39:47;;;;;;;;;;;15.30;99.90;;;;;;5090376;28;19924;-57
2022/07/22 04:42:14;;;;;;;;;;;15.30;99.90;;;;;;5088376;28;19924;-57
2022/07/22 04:44:44;;;;;;;;;;;15.30;99.90;;;;;;5069955;28;19932;-57
2022/07/22 04:47:12;;;;;;;;;;;15.20;99.90;;;;;;5071470;28;20383;-58
2022/07/22 04:49:40;;;;;;;;;;;15.20;99.90;;;;;;5069201;28;19925;-57
2022/07/22 04:52:10;;;;;;;;;;;15.10;99.90;;;;;;5086914;28;20280;-57
2022/07/22 04:54:47;;;;;;;;;;;15.00;99.90;;;;;;5083067;28;19924;-56
2022/07/22 04:57:15;;;;;;;;;;;14.90;99.90;;;;;;5090716;28;20386;-56
2022/07/22 04:59:42;;;;;;;;;;;14.90;99.90;;;;;;5088698;28;19936;-56
2022/07/22 05:02:10;;;;;;;;;;;14.90;99.90;;;;;;5074157;28;19936;-57
2022/07/22 05:04:38;;;;;;;;;;;14.70;99.90;;;;;;5078148;28;20276;-57
2022/07/22 05:07:06;;;;;;;;;;;14.70;99.90;;;;;;5065999;28;19928;-56
2022/07/22 05:09:33;;;;;;;;;;;14.60;99.90;;;;;;5089308;28;19931;-56
2022/07/22 05:12:01;;;;;;;;;;;14.60;99.90;;;;;;5086529;28;19924;-56
2022/07/22 05:14:31;;;;;;;;;;;14.50;99.90;;;;;;5078806;28;19939;-55
2022/07/22 05:16:59;;;;;;;;;;;14.50;99.90;;;;;;5086255;28;20411;-55
2022/07/22 05:19:27;;;;;;;;;;;14.50;99.90;;;;;;5105357;28;20283;-55
2022/07/22 05:21:54;;;;;;;;;;;14.40;99.90;;;;;;5072439;28;19925;-55
2022/07/22 05:24:22;;;;;;;;;;;14.40;99.90;;;;;;5094396;28;19928;-56
2022/07/22 05:26:50;;;;;;;;;;;14.40;99.90;;;;;;5075173;28;20291;-56
2022/07/22 05:29:18;;;;;;;;;;;14.30;99.90;;;;;;5088145;28;19928;-57
2022/07/22 05:31:46;;;;;;;;;;;14.30;99.90;;;;;;5088518;28;19935;-57
2022/07/22 05:34:13;;;;;;;;;;;14.30;99.90;;;;;;5078545;28;19939;-56
2022/07/22 05:36:45;;;;;;;;;;;14.30;99.90;;;;;;5067295;28;19924;-57
2022/07/22 05:39:14;;;;;;;;;;;14.20;99.90;;;;;;5107451;28;19973;-57
2022/07/22 05:41:41;;;;;;;;;;;14.10;99.90;;;;;;5086276;28;19928;-58
2022/07/22 05:44:09;;;;;;;;;;;14.10;99.90;;;;;;5089913;28;19924;-57
2022/07/22 05:46:36;;;;;;;;;;;14.10;99.90;;;;;;5075520;28;20257;-56
2022/07/22 05:49:07;;;;;;;;;;;14.00;99.90;;;;;;5085329;28;19932;-56
2022/07/22 05:51:46;;;;;;;;;;;14.00;99.90;;;;;;5085933;28;19924;-57
2022/07/22 05:54:13;;;;;;;;;;;14.00;99.90;;;;;;5084626;28;20311;-57
2022/07/22 05:56:42;;;;;;;;;;;14.00;99.90;;;;;;5084692;28;19928;-55
2022/07/22 05:59:10;;;;;;;;;;;13.90;99.90;;;;;;5088575;28;19924;-57
2022/07/22 06:01:37;;;;;;;;;;;13.90;99.90;;;;;;5072733;28;19932;-57
2022/07/22 06:04:22;;;;;;;;;;;13.90;99.90;;;;;;5087613;28;20418;-59
2022/07/22 06:06:51;;;;;;;;;;;13.90;99.90;;;;;;5090230;28;19928;-58
2022/07/22 06:09:19;;;;;;;;;;;13.90;99.90;;;;;;5083757;28;19928;-58
2022/07/22 06:11:47;;;;;;;;;;;13.90;99.90;;;;;;5090010;28;19924;-59
2022/07/22 06:14:14;;;;;;;;;;;13.90;99.90;;;;;;5091408;28;19931;-58
2022/07/22 06:16:49;;;;;;;;;;;13.80;99.90;;;;;;5083003;28;19932;-57
2022/07/22 06:19:16;;;;;;;;;;;13.80;99.90;;;;;;5083373;28;19935;-58
2022/07/22 06:21:44;;;;;;;;;;;13.80;99.90;;;;;;5077770;28;19931;-57
2022/07/22 06:24:14;;;;;;;;;;;13.80;99.90;;;;;;5085450;28;19924;-57
2022/07/22 06:26:42;;;;;;;;;;;13.80;99.90;;;;;;5087964;28;19924;-58
2022/07/22 06:29:10;;;;;;;;;;;13.80;99.90;;;;;;5084968;28;20552;-58
2022/07/22 06:31:37;;;;;;;;;;;13.80;99.90;;;;;;5069539;28;20398;-57
2022/07/22 06:34:05;;;;;;;;;;;13.80;99.90;;;;;;5081970;28;19928;-57
2022/07/22 06:36:49;;;;;;;;;;;13.80;99.90;;;;;;5068284;28;19931;-57
2022/07/22 06:39:17;;;;;;;;;;;13.80;99.90;;;;;;5073314;28;19939;-57
2022/07/22 06:41:56;;;;;;;;;;;13.80;99.90;;;;;;5087498;28;19935;-58
2022/07/22 06:44:47;;;;;;;;;;;13.80;99.90;;;;;;5074526;28;19932;-58
2022/07/22 06:47:35;;;;;;;;;;;13.80;99.90;;;;;;5084866;28;20275;-57
2022/07/22 06:50:05;;;;;;;;;;;13.80;99.90;;;;;;5064141;28;19924;-57
2022/07/22 06:52:40;;;;;;;;;;;13.80;99.90;;;;;;5089359;28;20607;-57
2022/07/22 06:55:07;;;;;;;;;;;13.80;99.90;;;;;;5086514;28;19929;-57
2022/07/22 06:57:38;;;;;;;;;;;13.80;99.90;;;;;;5093691;28;20292;-56
2022/07/22 07:00:09;;;;;;;;;;;13.80;99.90;;;;;;5093739;28;19924;-57
2022/07/22 07:02:58;;;;;;;;;;;13.90;99.90;;;;;;5080799;28;19932;-58
2022/07/22 07:05:46;;;;;;;;;;;13.80;99.90;;;;;;5100230;28;19923;-56
2022/07/22 07:08:16;;;;;;;;;;;13.90;99.90;;;;;;5096260;28;19932;-57
2022/07/22 07:10:46;;;;;;;;;;;13.90;99.90;;;;;;5087151;28;19924;-57
2022/07/22 07:13:15;;;;;;;;;;;13.90;99.90;;;;;;5100259;28;20287;-57
2022/07/22 07:15:44;;;;;;;;;;;13.90;99.90;;;;;;5083745;28;19924;-57
2022/07/22 07:18:12;;;;;;;;;;;13.90;99.90;;;;;;5082128;28;19961;-58
2022/07/22 07:20:39;;;;;;;;;;;13.90;99.90;;;;;;5084573;28;19933;-58
2022/07/22 07:23:10;;;;;;;;;;;13.90;99.90;;;;;;5087423;28;20311;-58
2022/07/22 07:25:42;;;;;;;;;;;13.90;99.90;;;;;;5077728;28;19994;-56
2022/07/22 07:28:11;;;;;;;;;;;13.90;99.90;;;;;;5087763;28;19938;-58
2022/07/22 07:31:04;;;;;;;;;;;13.80;99.90;;;;;;5069096;28;19939;-57
2022/07/22 07:33:34;;;;;;;;;;;13.80;99.90;;;;;;5083474;28;20291;-58
2022/07/22 07:36:02;;;;;;;;;;;13.80;99.90;;;;;;5071234;28;20018;-57
2022/07/22 07:38:47;;;;;;;;;;;13.80;99.90;;;;;;5082825;28;20292;-57
2022/07/22 07:41:17;;;;;;;;;;;13.60;99.90;;;;;;5056128;28;19944;-57
2022/07/22 07:43:47;;;;;;;;;;;13.80;99.90;;;;;;5085955;28;20422;-57
2022/07/22 07:46:15;;;;;;;;;;;13.80;99.90;;;;;;5088799;28;19928;-57
2022/07/22 07:48:45;;;;;;;;;;;13.70;99.90;;;;;;5080316;28;19931;-58
2022/07/22 07:51:12;;;;;;;;;;;13.70;99.90;;;;;;5083588;28;19924;-58
2022/07/22 07:53:42;;;;;;;;;;;13.70;99.90;;;;;;5086707;28;19924;-58
2022/07/22 07:56:11;;;;;;;;;;;13.70;99.90;;;;;;5078873;28;19924;-58
2022/07/22 07:58:39;;;;;;;;;;;13.80;99.90;;;;;;5086040;28;19931;-59
2022/07/22 08:01:22;;;;;;;;;;;13.80;99.90;;;;;;5070433;28;19939;-59
2022/07/22 08:04:10;;;;;;;;;;;13.80;99.90;;;;;;5079812;28;19929;-58
2022/07/22 08:06:58;;;;;;;;;;;13.80;99.90;;;;;;5084288;28;19928;-58
2022/07/22 08:09:26;;;;;;;;;;;13.80;99.90;;;;;;5076169;28;19924;-58
2022/07/22 08:11:56;;;;;;;;;;;13.80;99.90;;;;;;5075135;28;19924;-58
2022/07/22 08:14:43;;;;;;;;;;;13.70;99.90;;;;;;5075291;28;19931;-59
2022/07/22 08:17:29;;;;;;;;;;;13.70;99.90;;;;;;5073305;28;19924;-56
2022/07/22 08:19:56;;;;;;;;;;;13.70;99.90;;;;;;5079364;28;20395;-60
2022/07/22 08:22:24;;;;;;;;;;;13.70;99.90;;;;;;5068390;28;19933;-57
2022/07/22 08:24:53;;;;;;;;;;;13.70;99.90;;;;;;5079714;28;19928;-61
2022/07/22 08:27:21;;;;;;;;;;;13.80;99.90;;;;;;5083191;28;20431;-61
2022/07/22 08:29:49;;;;;;;;;;;13.80;99.90;;;;;;5082853;28;20391;-61
2022/07/22 08:32:17;;;;;;;;;;;13.80;99.90;;;;;;5073731;28;19923;-61
2022/07/22 08:34:45;;;;;;;;;;;13.90;99.90;;;;;;5083904;28;19939;-63
2022/07/22 08:37:12;;;;;;;;;;;13.80;99.90;;;;;;5086582;28;19957;-66
2022/07/22 08:39:40;;;;;;;;;;;13.90;99.90;;;;;;5103039;28;19947;-63
2022/07/22 08:42:08;;;;;;;;;;;13.90;99.90;;;;;;5082571;28;19924;-63
2022/07/22 08:44:36;;;;;;;;;;;13.90;99.90;;;;;;5084645;28;19928;-62
2022/07/22 08:47:04;;;;;;;;;;;14.00;99.90;;;;;;5072475;28;19932;-63
2022/07/22 08:50:07;;;;;;;;;;;13.90;99.90;;;;;;5068715;28;20413;-66
2022/07/22 08:52:53;;;;;;;;;;;14.00;99.90;;;;;;5075930;28;20410;-63
2022/07/22 08:55:21;;;;;;;;;;;14.00;99.90;;;;;;5067470;28;19924;-64
2022/07/22 08:57:49;;;;;;;;;;;14.00;99.90;;;;;;5074212;28;19932;-64
2022/07/22 09:00:19;;;;;;;;;;;14.00;99.90;;;;;;5083727;28;19924;-65
2022/07/22 09:02:46;;;;;;;;;;;14.00;99.90;;;;;;5070569;28;19928;-64
2022/07/22 09:05:16;;;;;;;;;;;14.00;99.90;;;;;;5070922;28;19924;-65
2022/07/22 09:08:05;;;;;;;;;;;14.00;99.90;;;;;;5068067;28;19925;-65
2022/07/22 09:10:48;;;;;;;;;;;14.00;99.90;;;;;;5068385;28;19929;-63
2022/07/22 09:13:34;;;;;;;;;;;14.10;99.90;;;;;;5073651;28;19935;-65
2022/07/22 09:16:43;;;;;;;;;;;14.20;99.90;;;;;;5057235;28;19924;-66
2022/07/22 09:19:37;;;;;;;;;;;14.20;99.90;;;;;;5076569;28;19929;-64
2022/07/22 09:22:35;;;;;;;;;;;14.30;99.90;;;;;;5074872;28;19931;-66
2022/07/22 09:25:22;;;;;;;;;;;14.30;99.90;;;;;;5079252;28;19928;-66
2022/07/22 09:28:18;;;;;;;;;;;14.50;99.90;;;;;;5065548;28;19948;-65
2022/07/22 09:31:23;;;;;;;;;;;14.60;99.90;;;;;;5055837;28;19931;-64
2022/07/22 09:34:01;;;;;;;;;;;14.70;99.90;;;;;;5075290;28;20268;-65
2022/07/22 09:36:30;;;;;;;;;;;14.80;99.90;;;;;;5082269;28;19928;-64
2022/07/22 09:38:58;;;;;;;;;;;14.90;99.90;;;;;;5078654;28;19958;-65
2022/07/22 09:41:27;;;;;;;;;;;14.90;99.90;;;;;;5065705;28;19925;-65
2022/07/22 09:43:54;;;;;;;;;;;14.90;99.90;;;;;;5077531;28;19924;-63
2022/07/22 09:46:37;;;;;;;;;;;15.00;99.90;;;;;;5091244;28;19924;-64
2022/07/22 09:49:37;;;;;;;;;;;14.90;99.90;;;;;;5082830;28;19924;-61
2022/07/22 09:52:23;;;;;;;;;;;14.90;99.90;;;;;;5071550;28;19928;-61
2022/07/22 09:55:06;;;;;;;;;;;14.90;99.90;;;;;;5068773;28;19931;-65
2022/07/22 09:57:36;;;;;;;;;;;14.90;99.90;;;;;;5086823;28;19924;-60
2022/07/22 10:00:08;;;;;;;;;;;14.80;99.90;;;;;;5087313;28;19924;-60
2022/07/22 10:02:53;;;;;;;;;;;14.90;99.90;;;;;;5078622;28;20395;-63
2022/07/22 10:05:23;;;;;;;;;;;15.00;99.90;;;;;;5081019;28;19928;-60
2022/07/22 10:07:52;;;;;;;;;;;15.00;99.90;;;;;;5074504;28;20331;-58
2022/07/22 10:10:24;;;;;;;;;;;15.10;99.90;;;;;;5087843;28;19947;-58
2022/07/22 10:12:54;;;;;;;;;;;15.10;99.90;;;;;;5086250;28;19924;-66
2022/07/22 10:15:23;;;;;;;;;;;15.00;99.90;;;;;;5085494;28;19939;-62
2022/07/22 10:17:56;;;;;;;;;;;15.00;99.90;;;;;;5089699;28;19924;-60
2022/07/22 10:20:26;;;;;;;;;;;15.00;99.90;;;;;;5090172;28;19931;-60
2022/07/22 10:23:00;;;;;;;;;;;14.90;99.90;;;;;;5080331;28;19932;-64
2022/07/22 10:25:52;;;;;;;;;;;14.90;99.90;;;;;;5079059;28;19924;-64
2022/07/22 10:28:25;;;;;;;;;;;14.90;99.90;;;;;;5085662;28;19924;-66
2022/07/22 10:31:00;;;;;;;;;;;14.90;99.90;;;;;;5080925;28;19936;-67
2022/07/22 10:33:29;;;;;;;;;;;14.90;99.90;;;;;;5086446;28;20307;-67
2022/07/22 10:35:59;;;;;;;;;;;14.90;99.90;;;;;;5083114;28;19931;-67
2022/07/22 10:38:28;;;;;;;;;;;14.90;99.90;;;;;;5079991;28;19924;-67
2022/07/22 10:41:06;;;;;;;;;;;15.00;99.90;;;;;;5089580;28;19928;-65
2022/07/22 10:43:43;;;;;;;;;;;15.10;99.90;;;;;;5101826;28;19928;-67
2022/07/22 10:46:10;;;;;;;;;;;15.20;99.90;;;;;;5093165;28;20543;-67
2022/07/22 10:48:38;;;;;;;;;;;15.40;99.90;;;;;;5094909;28;20703;-67
2022/07/22 10:51:12;;;;;;;;;;;15.50;99.90;;;;;;5082241;28;20315;-66
2022/07/22 10:53:51;;;;;;;;;;;15.70;99.90;;;;;;5075049;28;19924;-67
2022/07/22 10:56:21;;;;;;;;;;;15.80;99.90;;;;;;5075692;28;20324;-67
2022/07/22 10:58:51;;;;;;;;;;;15.90;99.90;;;;;;5075935;28;19932;-66
2022/07/22 11:01:20;;;;;;;;;;;16.00;99.90;;;;;;5072434;28;19928;-66
2022/07/22 11:03:49;;;;;;;;;;;16.10;99.90;;;;;;5079637;28;19928;-63
2022/07/22 11:06:19;;;;;;;;;;;16.20;99.90;;;;;;5077583;28;20402;-58
2022/07/22 11:08:48;;;;;;;;;;;16.30;99.90;;;;;;5069862;28;19925;-64
2022/07/22 11:11:15;;;;;;;;;;;16.40;99.90;;;;;;5072507;28;19925;-60
2022/07/22 11:13:44;;;;;;;;;;;16.50;99.90;;;;;;5071228;28;19955;-63
2022/07/22 11:16:19;;;;;;;;;;;16.50;99.90;;;;;;5080890;28;20137;-63
2022/07/22 11:18:54;;;;;;;;;;;16.60;99.90;;;;;;5096846;28;20530;-62
2022/07/22 11:21:24;;;;;;;;;;;16.60;99.90;;;;;;5095539;28;20363;-60
2022/07/22 11:23:52;;;;;;;;;;;16.60;99.90;;;;;;5073021;28;19925;-61
2022/07/22 11:26:35;;;;;;;;;;;16.70;99.90;;;;;;5068975;28;19931;-63
2022/07/22 11:29:05;;;;;;;;;;;16.70;99.90;;;;;;5070450;28;20148;-61
2022/07/22 11:31:32;;;;;;;;;;;16.80;99.90;;;;;;5074260;28;19924;-62
2022/07/22 11:34:07;;;;;;;;;;;16.80;99.90;;;;;;5079247;28;19924;-62
2022/07/22 11:36:36;;;;;;;;;;;16.90;99.90;;;;;;5075401;28;19928;-63
2022/07/22 11:39:04;;;;;;;;;;;16.90;99.90;;;;;;5072979;28;19925;-63
2022/07/22 11:41:32;;;;;;;;;;;17.00;99.90;;;;;;5071734;28;19924;-61
2022/07/22 11:44:00;;;;;;;;;;;17.10;99.90;;;;;;5072735;28;19924;-62
2022/07/22 11:46:28;;;;;;;;;;;17.30;99.90;;;;;;5065778;28;20388;-61
2022/07/22 11:48:57;;;;;;;;;;;17.50;99.90;;;;;;5069875;28;19935;-61
2022/07/22 11:51:29;;;;;;;;;;;17.70;99.90;;;;;;5069499;28;19943;-61
2022/07/22 11:59:55;;;;;;;;;;;18.00;99.90;;;;;;5017432;28;19944;-65
2022/07/22 12:02:23;;;;;;;;;;;18.10;99.90;;;;;;5021300;28;19952;-65
2022/07/22 12:04:51;;;;;;;;;;;18.10;99.90;;;;;;5025811;28;19929;-66
2022/07/22 12:07:31;;;;;;;;;;;18.10;99.90;;;;;;5021265;28;19929;-65
2022/07/22 12:09:58;;;;;;;;;;;18.20;99.90;;;;;;5022809;28;19933;-65
2022/07/22 12:12:38;;;;;;;;;;;18.10;99.90;;;;;;5020317;28;20386;-63
2022/07/22 12:15:07;;;;;;;;;;;18.10;99.90;;;;;;5023508;28;19932;-67
2022/07/22 12:18:13;;;;;;;;;;;18.10;99.90;;;;;;5012915;28;19929;-66
2022/07/22 12:20:44;;;;;;;;;;;18.20;99.90;;;;;;4991914;28;19925;-66
2022/07/22 12:23:20;;;;;;;;;;;18.20;99.90;;;;;;5029276;28;19948;-66
2022/07/22 12:25:50;;;;;;;;;;;18.20;99.90;;;;;;5022492;28;20246;-65
2022/07/22 12:28:18;;;;;;;;;;;18.20;99.90;;;;;;5016751;28;19929;-66
2022/07/22 12:30:45;;;;;;;;;;;18.30;99.90;;;;;;5024535;28;19932;-66
2022/07/22 12:33:15;;;;;;;;;;;18.30;99.90;;;;;;5022685;28;20245;-66
2022/07/22 12:35:42;;;;;;;;;;;18.40;99.90;;;;;;5026022;28;19926;-66
2022/07/22 12:38:10;;;;;;;;;;;18.50;99.90;;;;;;5025167;28;19925;-67
2022/07/22 12:40:38;;;;;;;;;;;18.70;99.90;;;;;;5023007;28;19929;-67
2022/07/22 12:43:07;;;;;;;;;;;19.00;99.90;;;;;;5024604;28;19929;-67
2022/07/22 12:45:36;;;;;;;;;;;19.10;99.90;;;;;;5010087;28;20303;-66
2022/07/22 12:48:03;;;;;;;;;;;19.20;99.90;;;;;;5022172;28;19936;-67
2022/07/22 12:50:32;;;;;;;;;;;19.20;99.90;;;;;;5022556;28;19929;-66
2022/07/22 12:53:02;;;;;;;;;;;19.10;99.90;;;;;;5021503;28;20384;-66
2022/07/22 12:55:56;;;;;;;;;;;19.10;99.90;;;;;;5018346;28;20311;-66
2022/07/22 12:58:26;;;;;;;;;;;18.90;99.90;;;;;;5004062;28;19929;-66
2022/07/22 13:00:55;;;;;;;;;;;18.90;99.90;;;;;;5001736;28;19926;-66
2022/07/22 13:03:25;;;;;;;;;;;18.80;99.90;;;;;;5002745;28;19932;-65
2022/07/22 13:05:56;;;;;;;;;;;18.90;99.90;;;;;;5003434;28;19930;-65
2022/07/22 13:08:23;;;;;;;;;;;19.00;99.90;;;;;;5003653;28;19937;-66
2022/07/22 13:10:51;;;;;;;;;;;19.00;99.90;;;;;;4999655;28;19930;-68
2022/07/22 13:13:19;;;;;;;;;;;19.10;99.90;;;;;;4998492;28;19926;-66
2022/07/22 13:15:47;;;;;;;;;;;19.10;99.90;;;;;;5007476;28;19926;-67
2022/07/22 13:18:15;;;;;;;;;;;19.20;99.90;;;;;;4994345;28;20444;-66
2022/07/22 13:20:42;;;;;;;;;;;19.10;99.90;;;;;;5001997;28;19933;-64
2022/07/22 13:23:10;;;;;;;;;;;19.20;99.90;;;;;;5002737;28;19925;-68
2022/07/22 13:25:37;;;;;;;;;;;19.30;99.90;;;;;;4993231;28;19926;-66
2022/07/22 13:28:05;;;;;;;;;;;19.40;99.90;;;;;;4991250;28;19925;-66
2022/07/22 13:30:32;;;;;;;;;;;19.60;99.90;;;;;;5003697;28;19929;-65
2022/07/22 13:33:00;;;;;;;;;;;19.70;99.90;;;;;;5007413;28;19929;-67
2022/07/22 13:35:29;;;;;;;;;;;19.90;99.90;;;;;;5006555;28;19933;-67
2022/07/22 13:37:57;;;;;;;;;;;19.90;99.90;;;;;;4996886;28;19925;-66
2022/07/22 13:40:25;;;;;;;;;;;20.00;99.90;;;;;;5006847;28;20292;-67
2022/07/22 13:42:52;;;;;;;;;;;20.10;99.90;;;;;;5008120;28;19926;-66
2022/07/22 13:45:20;;;;;;;;;;;20.20;99.90;;;;;;5007356;28;19926;-67
2022/07/22 13:47:47;;;;;;;;;;;20.30;99.90;;;;;;5020539;28;19926;-65
2022/07/22 13:50:15;;;;;;;;;;;20.40;99.90;;;;;;5019696;28;19925;-66
2022/07/22 13:52:46;;;;;;;;;;;20.50;99.90;;;;;;5005632;28;19936;-65
2022/07/22 13:55:14;;;;;;;;;;;20.60;99.90;;;;;;4990487;28;19937;-67
2022/07/22 13:57:42;;;;;;;;;;;20.70;99.90;;;;;;5005868;28;19936;-67
2022/07/22 14:00:09;;;;;;;;;;;20.80;99.90;;;;;;4993764;28;19926;-69
2022/07/22 14:02:42;;;;;;;;;;;21.00;99.90;;;;;;5002114;28;20377;-68
2022/07/22 14:05:11;;;;;;;;;;;21.00;99.90;;;;;;5002882;28;19932;-68
2022/07/22 14:07:38;;;;;;;;;;;20.90;99.90;;;;;;5006295;28;19925;-69
2022/07/22 14:10:06;;;;;;;;;;;20.70;99.90;;;;;;5000431;28;19952;-68
2022/07/22 14:12:33;;;;;;;;;;;20.50;99.90;;;;;;5021797;28;19929;-67
2022/07/22 14:15:01;;;;;;;;;;;20.40;99.90;;;;;;5006501;28;19925;-67
2022/07/22 14:17:30;;;;;;;;;;;20.30;99.90;;;;;;5001285;28;20307;-63
2022/07/22 14:19:59;;;;;;;;;;;20.20;99.90;;;;;;5007548;28;20273;-63
2022/07/22 14:22:28;;;;;;;;;;;20.10;99.90;;;;;;5008333;28;19929;-64
2022/07/22 14:24:56;;;;;;;;;;;20.10;99.90;;;;;;5010097;28;19925;-63
2022/07/22 14:27:23;;;;;;;;;;;19.90;99.90;;;;;;5000409;28;19929;-65
2022/07/22 14:29:50;;;;;;;;;;;19.90;99.90;;;;;;5005669;28;19929;-66
2022/07/22 14:32:19;;;;;;;;;;;19.80;99.90;;;;;;5006373;28;19925;-65
2022/07/22 14:34:46;;;;;;;;;;;19.80;99.90;;;;;;4999566;28;19929;-64
2022/07/22 14:37:14;;;;;;;;;;;19.80;99.90;;;;;;5000240;28;19941;-63
2022/07/22 14:39:42;;;;;;;;;;;19.80;99.90;;;;;;5008305;28;19932;-63
2022/07/22 14:42:09;;;;;;;;;;;19.80;99.90;;;;;;5007958;28;19925;-64
2022/07/22 14:44:36;;;;;;;;;;;19.80;99.90;;;;;;5003217;28;20331;-66